Time;durP1;ratioP1;P1;durP2;ratioP2;P2;SDS_P1;SDS_P2;PMS_P1;PMS_P2;Temp;Humidity;BMP_temperature;BMP_pressure;BME280_temperature;BME280_humidity;BME280_pressure;Samples;Min_cycle;Max_cycle;Signal;HPM_P1;HPM_P2
2023/11/12 00:00:41;;;;;;;8.48;4.38;;;7.10;99.90;;;;;;5012624;28;20030;-70
2023/11/12 00:03:07;;;;;;;7.68;4.07;;;7.10;99.90;;;;;;5009860;28;20045;-69
2023/11/12 00:05:32;;;;;;;7.65;4.28;;;7.10;99.90;;;;;;5005312;28;20041;-69
2023/11/12 00:07:58;;;;;;;10.10;4.93;;;7.10;99.90;;;;;;5005395;28;20109;-70
2023/11/12 00:10:23;;;;;;;11.15;4.53;;;7.10;99.90;;;;;;5010517;28;20069;-70
2023/11/12 00:12:49;;;;;;;8.10;4.38;;;7.10;99.90;;;;;;5006044;28;20562;-70
2023/11/12 00:15:14;;;;;;;8.30;4.30;;;7.10;99.90;;;;;;5003557;28;20038;-72
2023/11/12 00:17:42;;;;;;;9.23;4.03;;;7.20;99.90;;;;;;5008621;28;20375;-70
2023/11/12 00:20:12;;;;;;;10.35;4.53;;;7.20;99.90;;;;;;4999495;28;20037;-69
2023/11/12 00:22:38;;;;;;;9.75;4.65;;;7.20;99.90;;;;;;5007209;28;20030;-71
2023/11/12 00:25:04;;;;;;;7.55;3.67;;;7.20;99.90;;;;;;5010228;28;20038;-69
2023/11/12 00:27:30;;;;;;;7.65;3.75;;;7.20;99.90;;;;;;5008502;28;20123;-70
2023/11/12 00:29:55;;;;;;;7.10;3.90;;;7.20;99.90;;;;;;5004074;28;20046;-69
2023/11/12 00:32:21;;;;;;;7.25;3.58;;;7.20;99.90;;;;;;5008211;28;20057;-69
2023/11/12 00:34:47;;;;;;;8.48;4.18;;;7.20;99.90;;;;;;5002357;28;20507;-69
2023/11/12 00:37:14;;;;;;;7.68;3.85;;;7.20;99.90;;;;;;5014403;28;20037;-70
2023/11/12 00:39:40;;;;;;;7.97;4.25;;;7.30;99.90;;;;;;5008865;28;20030;-70
2023/11/12 00:42:06;;;;;;;8.07;3.83;;;7.20;99.90;;;;;;5006933;28;20041;-70
2023/11/12 00:44:31;;;;;;;6.05;3.53;;;7.20;99.90;;;;;;5006870;28;20497;-70
2023/11/12 00:46:57;;;;;;;8.15;3.45;;;7.30;99.90;;;;;;5004200;28;20038;-70
2023/11/12 00:49:22;;;;;;;9.85;3.92;;;7.20;99.90;;;;;;5007534;28;20030;-70
2023/11/12 00:51:48;;;;;;;8.57;3.78;;;7.30;99.90;;;;;;5005141;28;20038;-70
2023/11/12 00:54:13;;;;;;;7.53;3.33;;;7.30;99.90;;;;;;5003981;28;20036;-70
2023/11/12 00:56:39;;;;;;;6.32;3.47;;;7.30;99.90;;;;;;5004204;28;20617;-69
2023/11/12 00:59:05;;;;;;;6.55;3.78;;;7.30;99.90;;;;;;4997862;28;20121;-69
2023/11/12 01:01:31;;;;;;;6.90;3.75;;;7.30;99.90;;;;;;5000730;28;20037;-71
2023/11/12 01:03:56;;;;;;;7.22;3.88;;;7.30;99.90;;;;;;5009377;28;20494;-70
2023/11/12 01:06:22;;;;;;;9.73;3.83;;;7.30;99.90;;;;;;5005102;28;20112;-70
2023/11/12 01:08:48;;;;;;;7.97;3.90;;;7.30;99.90;;;;;;5003348;28;20042;-69
2023/11/12 01:11:14;;;;;;;6.40;3.13;;;7.30;99.90;;;;;;5001183;28;20494;-69
2023/11/12 01:13:40;;;;;;;5.15;3.05;;;7.30;99.90;;;;;;5002224;28;20038;-69
2023/11/12 01:16:06;;;;;;;6.72;3.35;;;7.30;99.90;;;;;;5003108;28;20536;-70
2023/11/12 01:18:33;;;;;;;6.28;3.08;;;7.30;99.90;;;;;;5006482;28;20026;-70
2023/11/12 01:20:59;;;;;;;7.43;3.30;;;7.30;99.90;;;;;;5001221;28;20081;-69
2023/11/12 01:23:24;;;;;;;7.13;3.90;;;7.30;99.90;;;;;;4999786;28;20026;-69
2023/11/12 01:25:50;;;;;;;7.47;3.88;;;7.30;99.90;;;;;;5001551;28;20513;-71
2023/11/12 01:28:15;;;;;;;7.22;3.78;;;7.30;99.90;;;;;;4996803;28;20077;-71
2023/11/12 01:30:41;;;;;;;7.00;3.58;;;7.30;99.90;;;;;;5001359;28;20154;-69
2023/11/12 01:33:07;;;;;;;6.45;3.22;;;7.30;99.90;;;;;;5006660;28;20036;-70
2023/11/12 01:35:33;;;;;;;7.85;3.92;;;7.30;99.90;;;;;;5006765;28;20121;-70
2023/11/12 01:37:58;;;;;;;8.15;3.55;;;7.30;99.90;;;;;;5004086;28;20116;-69
2023/11/12 01:40:25;;;;;;;6.38;3.63;;;7.40;99.90;;;;;;5006025;28;20037;-73
2023/11/12 01:42:51;;;;;;;5.40;2.92;;;7.30;99.90;;;;;;5004486;28;20034;-70
2023/11/12 01:45:16;;;;;;;6.50;3.35;;;7.30;99.90;;;;;;5005112;28;20045;-71
2023/11/12 01:47:44;;;;;;;7.18;3.70;;;7.30;99.90;;;;;;5006392;28;20038;-70
2023/11/12 01:50:12;;;;;;;7.88;3.67;;;7.30;99.90;;;;;;5007321;28;20021;-72
2023/11/12 01:52:39;;;;;;;8.48;3.65;;;7.20;99.90;;;;;;5003909;28;20030;-70
2023/11/12 01:55:06;;;;;;;7.63;4.22;;;7.20;99.90;;;;;;5006576;28;20036;-70
2023/11/12 01:57:34;;;;;;;8.68;3.90;;;7.20;99.90;;;;;;5003896;28;20030;-70
2023/11/12 02:00:01;;;;;;;6.70;3.85;;;7.20;99.90;;;;;;5001018;28;20044;-69
2023/11/12 02:02:34;;;;;;;8.57;4.35;;;7.10;99.90;;;;;;5008624;28;20036;-71
2023/11/12 02:04:59;;;;;;;6.13;3.33;;;7.20;99.90;;;;;;5004271;28;20164;-70
2023/11/12 02:07:25;;;;;;;6.80;3.92;;;7.10;99.90;;;;;;5005435;28;20457;-71
2023/11/12 02:09:55;;;;;;;9.68;4.93;;;7.10;99.90;;;;;;5006640;28;20033;-69
2023/11/12 02:12:21;;;;;;;6.85;4.00;;;7.10;99.90;;;;;;5002676;28;20490;-70
2023/11/12 02:14:47;;;;;;;6.88;3.90;;;7.10;99.90;;;;;;5001229;28;20045;-69
2023/11/12 02:17:12;;;;;;;7.13;3.35;;;7.10;99.90;;;;;;5006677;28;20033;-69
2023/11/12 02:19:38;;;;;;;6.78;3.80;;;7.10;99.90;;;;;;5009318;28;20087;-70
2023/11/12 02:22:03;;;;;;;8.35;4.20;;;7.10;99.90;;;;;;5003411;28;20386;-70
2023/11/12 02:24:29;;;;;;;8.07;4.35;;;7.10;99.90;;;;;;5009378;28;20426;-69
2023/11/12 02:26:55;;;;;;;7.55;4.00;;;7.00;99.90;;;;;;5006325;28;20046;-70
2023/11/12 02:29:22;;;;;;;8.57;4.05;;;7.10;99.90;;;;;;5000799;28;20034;-70
2023/11/12 02:31:47;;;;;;;9.77;4.45;;;7.00;99.90;;;;;;5004993;28;20496;-69
2023/11/12 02:34:12;;;;;;;7.35;3.95;;;7.00;99.90;;;;;;5007350;28;20038;-70
2023/11/12 02:36:38;;;;;;;7.43;3.92;;;7.10;99.90;;;;;;5009552;28;20057;-70
2023/11/12 02:39:07;;;;;;;9.85;4.85;;;7.00;99.90;;;;;;5000983;28;20034;-69
2023/11/12 02:41:37;;;;;;;7.10;3.75;;;7.00;99.90;;;;;;4999164;28;20041;-71
2023/11/12 02:44:07;;;;;;;7.90;3.67;;;7.00;99.90;;;;;;5002113;28;20069;-70
2023/11/12 02:46:32;;;;;;;8.07;4.55;;;7.00;99.90;;;;;;5006660;28;20029;-70
2023/11/12 02:49:07;;;;;;;8.77;4.30;;;7.00;99.90;;;;;;5006414;28;20486;-70
2023/11/12 02:51:33;;;;;;;8.23;4.15;;;7.00;99.90;;;;;;5000661;28;20041;-70
2023/11/12 02:53:58;;;;;;;7.55;4.43;;;7.00;99.90;;;;;;5008378;28;20064;-69
2023/11/12 02:56:24;;;;;;;8.45;4.35;;;7.00;99.90;;;;;;5007232;28;20052;-69
2023/11/12 02:58:49;;;;;;;8.80;3.67;;;7.00;99.90;;;;;;5001972;28;20038;-71
2023/11/12 03:01:15;;;;;;;7.88;4.10;;;7.00;99.90;;;;;;5005430;28;20378;-71
2023/11/12 03:03:41;;;;;;;7.80;3.63;;;7.00;99.90;;;;;;5020470;28;20038;-69
2023/11/12 03:06:07;;;;;;;7.35;3.88;;;7.00;99.90;;;;;;5005853;28;20033;-71
2023/11/12 03:08:32;;;;;;;7.57;4.30;;;6.90;99.90;;;;;;5002091;28;20471;-69
2023/11/12 03:10:58;;;;;;;7.72;4.38;;;7.00;99.90;;;;;;5000815;28;20022;-70
2023/11/12 03:13:25;;;;;;;8.23;3.95;;;6.90;99.90;;;;;;5001413;28;20030;-71
2023/11/12 03:15:51;;;;;;;7.38;3.78;;;6.90;99.90;;;;;;4999705;28;20049;-71
2023/11/12 03:18:17;;;;;;;7.30;4.05;;;7.00;99.90;;;;;;5008053;28;20022;-69
2023/11/12 03:20:42;;;;;;;6.53;3.75;;;6.90;99.90;;;;;;5010475;28;20037;-70
2023/11/12 03:23:08;;;;;;;6.70;3.80;;;6.90;99.90;;;;;;5007065;28;20033;-69
2023/11/12 03:25:33;;;;;;;7.53;3.95;;;6.90;99.90;;;;;;5009915;28;20593;-70
2023/11/12 03:27:59;;;;;;;7.53;4.10;;;6.90;99.90;;;;;;5001732;28;20029;-71
2023/11/12 03:30:24;;;;;;;6.93;3.78;;;6.80;99.90;;;;;;5001344;28;20058;-69
2023/11/12 03:32:50;;;;;;;7.43;4.03;;;6.90;99.90;;;;;;5009045;28;20390;-71
2023/11/12 03:35:16;;;;;;;7.53;4.03;;;6.80;99.90;;;;;;5009479;28;20117;-70
2023/11/12 03:37:41;;;;;;;7.82;3.95;;;6.80;99.90;;;;;;5009490;28;20073;-70
2023/11/12 03:40:08;;;;;;;7.55;4.25;;;6.80;99.90;;;;;;5008415;28;20061;-70
2023/11/12 03:42:33;;;;;;;7.60;4.35;;;6.80;99.90;;;;;;5007185;28;20471;-69
2023/11/12 03:44:59;;;;;;;8.15;4.72;;;6.80;99.90;;;;;;5010012;28;20072;-71
2023/11/12 03:47:25;;;;;;;8.45;4.78;;;6.80;99.90;;;;;;5008314;28;20033;-69
2023/11/12 03:49:51;;;;;;;7.82;4.50;;;6.70;99.90;;;;;;5010635;28;20035;-70
2023/11/12 03:52:16;;;;;;;7.00;4.22;;;6.80;99.90;;;;;;5009619;28;20033;-70
2023/11/12 03:54:42;;;;;;;6.80;4.38;;;6.70;99.90;;;;;;5009052;28;20030;-70
2023/11/12 03:57:09;;;;;;;7.88;4.45;;;6.70;99.90;;;;;;5005381;28;20033;-72
2023/11/12 03:59:36;;;;;;;8.00;4.75;;;6.70;99.90;;;;;;5008259;28;20038;-70
2023/11/12 04:02:02;;;;;;;7.95;4.20;;;6.70;99.90;;;;;;5009261;28;20062;-70
2023/11/12 04:04:28;;;;;;;8.73;4.28;;;6.70;99.90;;;;;;5006968;28;20424;-69
2023/11/12 04:06:53;;;;;;;6.38;3.97;;;6.70;99.90;;;;;;5008940;28;20072;-69
2023/11/12 04:09:19;;;;;;;8.63;4.60;;;6.70;99.90;;;;;;5002564;28;20034;-69
2023/11/12 04:11:44;;;;;;;8.38;3.95;;;6.70;99.90;;;;;;5006183;28;20434;-71
2023/11/12 04:14:10;;;;;;;7.07;4.50;;;6.70;99.90;;;;;;5000247;28;20062;-69
2023/11/12 04:16:35;;;;;;;6.72;4.28;;;6.70;99.90;;;;;;5009705;28;20467;-70
2023/11/12 04:19:04;;;;;;;7.30;4.40;;;6.60;99.90;;;;;;5005921;28;20037;-69
2023/11/12 04:21:30;;;;;;;8.15;4.18;;;6.60;99.90;;;;;;5003836;28;20031;-70
2023/11/12 04:23:55;;;;;;;8.65;5.03;;;6.60;99.90;;;;;;5009653;28;20050;-72
2023/11/12 04:26:22;;;;;;;7.75;4.22;;;6.70;99.90;;;;;;5009110;28;20493;-70
2023/11/12 04:28:47;;;;;;;7.40;4.00;;;6.60;99.90;;;;;;5006323;28;20156;-69
2023/11/12 04:31:13;;;;;;;9.07;4.88;;;6.60;99.90;;;;;;5008220;28;20470;-71
2023/11/12 04:33:38;;;;;;;7.57;4.00;;;6.60;99.90;;;;;;5009841;28;20461;-69
2023/11/12 04:36:04;;;;;;;9.40;4.60;;;6.60;99.90;;;;;;5008523;28;20037;-69
2023/11/12 04:38:30;;;;;;;9.02;4.65;;;6.60;99.90;;;;;;5009513;28;20475;-70
2023/11/12 04:40:56;;;;;;;9.18;4.93;;;6.60;99.90;;;;;;5008581;28;20038;-69
2023/11/12 04:43:21;;;;;;;9.73;4.95;;;6.60;99.90;;;;;;5006980;28;20030;-73
2023/11/12 04:45:46;;;;;;;8.48;4.85;;;6.50;99.90;;;;;;5003612;28;20064;-71
2023/11/12 04:48:12;;;;;;;9.90;5.03;;;6.50;99.90;;;;;;5001966;28;20394;-70
2023/11/12 04:50:38;;;;;;;9.63;4.20;;;6.50;99.90;;;;;;5006234;28;20084;-70
2023/11/12 04:53:04;;;;;;;9.48;5.20;;;6.50;99.90;;;;;;5010721;28;20390;-73
2023/11/12 04:55:30;;;;;;;8.48;4.70;;;6.50;99.90;;;;;;5004952;28;20037;-69
2023/11/12 04:57:56;;;;;;;8.88;5.30;;;6.50;99.90;;;;;;5000031;28;20088;-71
2023/11/12 05:00:22;;;;;;;8.55;5.20;;;6.40;99.90;;;;;;5004679;28;20379;-70
2023/11/12 05:02:48;;;;;;;7.90;4.82;;;6.50;99.90;;;;;;5005450;28;20041;-70
2023/11/12 05:05:14;;;;;;;9.05;5.13;;;6.40;99.90;;;;;;5008131;28;20034;-70
2023/11/12 05:07:39;;;;;;;8.68;4.72;;;6.40;99.90;;;;;;5009819;28;20037;-70
2023/11/12 05:10:08;;;;;;;9.23;5.15;;;6.40;99.90;;;;;;5004366;28;20153;-70
2023/11/12 05:12:34;;;;;;;9.95;5.45;;;6.40;99.90;;;;;;5000018;28;20395;-69
2023/11/12 05:15:00;;;;;;;9.48;4.95;;;6.40;99.90;;;;;;5002638;28;20022;-70
2023/11/12 05:17:26;;;;;;;8.45;5.22;;;6.40;99.90;;;;;;5002458;28;20045;-70
2023/11/12 05:19:51;;;;;;;7.60;4.43;;;6.40;99.90;;;;;;5010508;28;20037;-70
2023/11/12 05:22:17;;;;;;;7.68;5.30;;;6.40;99.90;;;;;;5008751;28;20115;-70
2023/11/12 05:24:43;;;;;;;9.65;5.38;;;6.30;99.90;;;;;;5007703;28;20037;-70
2023/11/12 05:27:09;;;;;;;9.05;4.72;;;6.30;99.90;;;;;;5004848;28;20129;-67
2023/11/12 05:29:35;;;;;;;9.25;5.47;;;6.40;99.90;;;;;;5005273;28;20188;-66
2023/11/12 05:32:00;;;;;;;11.05;5.22;;;6.30;99.90;;;;;;5007689;28;20123;-66
2023/11/12 05:34:25;;;;;;;7.95;4.57;;;6.40;99.90;;;;;;5010137;28;20117;-67
2023/11/12 05:36:51;;;;;;;9.00;4.72;;;6.30;99.90;;;;;;5004912;28;20038;-66
2023/11/12 05:39:17;;;;;;;8.55;4.60;;;6.30;99.90;;;;;;5005777;28;20356;-66
2023/11/12 05:41:43;;;;;;;7.95;4.53;;;6.30;99.90;;;;;;5002100;28;20044;-67
2023/11/12 05:44:08;;;;;;;10.57;6.30;;;6.30;99.90;;;;;;5007207;28;20037;-66
2023/11/12 05:46:34;;;;;;;9.23;5.72;;;6.30;99.90;;;;;;4998935;28;20148;-66
2023/11/12 05:48:59;;;;;;;10.27;5.32;;;6.30;99.90;;;;;;5010396;28;20026;-66
2023/11/12 05:51:25;;;;;;;9.50;5.90;;;6.40;99.90;;;;;;4998955;28;20395;-66
2023/11/12 05:53:50;;;;;;;9.98;4.93;;;6.30;99.90;;;;;;5006707;28;20061;-66
2023/11/12 05:56:16;;;;;;;9.38;5.55;;;6.30;99.90;;;;;;5003235;28;20069;-66
2023/11/12 05:58:41;;;;;;;11.25;6.60;;;6.30;99.90;;;;;;5001265;28;20032;-66
2023/11/12 06:01:07;;;;;;;9.88;5.90;;;6.30;99.90;;;;;;5007511;28;20046;-66
2023/11/12 06:03:32;;;;;;;11.10;5.85;;;6.30;99.90;;;;;;5007346;28;20033;-67
2023/11/12 06:05:58;;;;;;;9.88;6.00;;;6.20;99.90;;;;;;5011509;28;20467;-66
2023/11/12 06:08:24;;;;;;;10.48;5.88;;;6.20;99.90;;;;;;5005552;28;20030;-66
2023/11/12 06:10:49;;;;;;;12.25;6.63;;;6.20;99.90;;;;;;5006854;28;20109;-66
2023/11/12 06:13:15;;;;;;;11.48;6.30;;;6.20;99.90;;;;;;5001447;28;20045;-67
2023/11/12 06:15:41;;;;;;;10.07;5.60;;;6.20;99.90;;;;;;5008736;28;20025;-66
2023/11/12 06:18:07;;;;;;;13.45;7.13;;;6.20;99.90;;;;;;5005869;28;20117;-67
2023/11/12 06:20:33;;;;;;;9.98;5.60;;;6.10;99.90;;;;;;5004393;28;20122;-67
2023/11/12 06:22:59;;;;;;;10.77;6.30;;;6.10;99.90;;;;;;5002693;28;20045;-67
2023/11/12 06:25:25;;;;;;;10.95;6.45;;;6.10;99.90;;;;;;4998385;28;20042;-68
2023/11/12 06:27:51;;;;;;;11.32;5.75;;;6.10;99.90;;;;;;5019513;28;20072;-66
2023/11/12 06:30:16;;;;;;;11.40;6.72;;;6.10;99.90;;;;;;5000583;28;20034;-67
2023/11/12 06:32:43;;;;;;;10.00;5.45;;;6.10;99.90;;;;;;5008717;28;20088;-65
2023/11/12 06:35:08;;;;;;;12.35;6.68;;;6.00;99.90;;;;;;5000587;28;20038;-66
2023/11/12 06:37:34;;;;;;;10.73;6.15;;;6.00;99.90;;;;;;5001437;28;20030;-66
2023/11/12 06:39:59;;;;;;;14.27;6.57;;;6.00;99.90;;;;;;5001099;28;20398;-66
2023/11/12 06:42:25;;;;;;;12.80;6.95;;;5.90;99.90;;;;;;4999618;28;20057;-70
2023/11/12 06:44:50;;;;;;;10.85;6.15;;;5.90;99.90;;;;;;5002886;28;20045;-69
2023/11/12 06:47:16;;;;;;;11.10;6.60;;;5.90;99.90;;;;;;5007748;28;20034;-69
2023/11/12 06:49:42;;;;;;;11.70;5.68;;;5.90;99.90;;;;;;5010686;28;20049;-69
2023/11/12 06:52:07;;;;;;;9.68;4.95;;;5.80;99.90;;;;;;5008457;28;20041;-70
2023/11/12 06:54:32;;;;;;;9.65;5.65;;;5.80;99.90;;;;;;5005159;28;20037;-69
2023/11/12 06:56:59;;;;;;;10.38;5.43;;;5.80;99.90;;;;;;5002229;28;20021;-71
2023/11/12 06:59:25;;;;;;;9.50;5.43;;;5.80;99.90;;;;;;5002446;28;20049;-69
2023/11/12 07:01:51;;;;;;;8.93;4.85;;;5.80;99.90;;;;;;5008099;28;20494;-68
2023/11/12 07:04:16;;;;;;;9.75;5.22;;;5.80;99.90;;;;;;5008137;28;20038;-68
2023/11/12 07:06:42;;;;;;;10.75;5.95;;;5.90;99.90;;;;;;5016793;28;20053;-68
2023/11/12 07:09:08;;;;;;;9.98;5.70;;;5.90;99.90;;;;;;5004401;28;20140;-69
2023/11/12 07:11:33;;;;;;;10.68;5.65;;;5.90;99.90;;;;;;4999742;28;20827;-69
2023/11/12 07:13:59;;;;;;;10.13;6.03;;;6.00;99.90;;;;;;5010004;28;20034;-69
2023/11/12 07:16:24;;;;;;;10.15;5.22;;;6.00;99.90;;;;;;5007696;28;20037;-73
2023/11/12 07:18:50;;;;;;;11.93;5.85;;;5.90;99.90;;;;;;5007163;28;20034;-73
2023/11/12 07:21:30;;;;;;;11.15;6.32;;;6.00;99.90;;;;;;5010050;28;20033;-72
2023/11/12 07:23:56;;;;;;;10.32;5.63;;;5.90;99.90;;;;;;5008732;28;20088;-74
2023/11/12 07:26:24;;;;;;;10.88;6.05;;;5.90;99.90;;;;;;5010560;28;20060;-74
2023/11/12 07:28:50;;;;;;;9.38;5.85;;;6.00;99.90;;;;;;5010306;28;20537;-74
2023/11/12 07:31:17;;;;;;;10.15;5.10;;;6.00;99.90;;;;;;5009894;28;20433;-76
2023/11/12 07:33:43;;;;;;;11.27;5.25;;;6.00;99.90;;;;;;5008289;28;20022;-74
2023/11/12 07:36:11;;;;;;;9.88;5.47;;;6.10;99.90;;;;;;5004186;28;20482;-75
2023/11/12 07:38:36;;;;;;;11.88;6.15;;;6.10;99.90;;;;;;5008433;28;20042;-74
2023/11/12 07:41:03;;;;;;;10.45;5.95;;;6.10;99.90;;;;;;5004347;28;20085;-74
2023/11/12 07:43:28;;;;;;;11.00;5.15;;;6.10;99.90;;;;;;5006154;28;20026;-74
2023/11/12 07:45:54;;;;;;;11.98;5.95;;;6.10;99.90;;;;;;5004728;28;20368;-85
2023/11/12 07:48:19;;;;;;;10.20;5.78;;;6.10;99.90;;;;;;5012656;28;20030;-87
2023/11/12 07:50:44;;;;;;;10.10;5.10;;;6.20;99.90;;;;;;5011451;28;20041;-86
2023/11/12 07:53:10;;;;;;;8.95;5.18;;;6.20;99.90;;;;;;5015800;28;20038;-85
2023/11/12 07:55:35;;;;;;;12.88;6.15;;;6.30;99.90;;;;;;5008035;28;20892;-85
2023/11/12 07:58:01;;;;;;;10.95;5.80;;;6.30;99.90;;;;;;5011114;28;20648;-86
2023/11/12 08:00:26;;;;;;;9.98;4.90;;;6.30;99.90;;;;;;5003432;28;20117;-85
2023/11/12 08:02:52;;;;;;;11.50;5.90;;;6.30;99.90;;;;;;5002294;28;20045;-85
2023/11/12 08:05:18;;;;;;;11.90;5.97;;;6.30;99.90;;;;;;5009922;28;20054;-84
2023/11/12 08:07:44;;;;;;;11.20;6.03;;;6.30;99.90;;;;;;5008746;28;20041;-86
2023/11/12 08:10:10;;;;;;;10.15;5.40;;;6.30;99.90;;;;;;5003249;28;20144;-86
2023/11/12 08:12:37;;;;;;;12.75;6.65;;;6.30;99.90;;;;;;5008234;28;20044;-80
2023/11/12 08:15:06;;;;;;;11.52;6.05;;;6.40;99.90;;;;;;5006041;28;20076;-80
2023/11/12 08:17:32;;;;;;;11.27;5.68;;;6.40;99.90;;;;;;5000623;28;20096;-79
2023/11/12 08:19:57;;;;;;;11.52;5.85;;;6.40;99.90;;;;;;5002670;28;20030;-79
2023/11/12 08:22:23;;;;;;;11.63;6.30;;;6.40;99.90;;;;;;5004894;28;20026;-79
2023/11/12 08:24:49;;;;;;;11.25;6.03;;;6.40;99.90;;;;;;5008050;28;20034;-83
2023/11/12 08:27:14;;;;;;;12.77;6.20;;;6.50;99.90;;;;;;5002846;28;20061;-81
2023/11/12 08:29:40;;;;;;;11.98;6.75;;;6.50;99.90;;;;;;5010064;28;20030;-83
2023/11/12 08:32:06;;;;;;;11.85;6.43;;;6.50;99.90;;;;;;5008716;28;20038;-82
2023/11/12 08:34:32;;;;;;;12.52;6.15;;;6.50;99.90;;;;;;5007722;28;20355;-81
2023/11/12 08:36:57;;;;;;;11.25;6.65;;;6.50;99.90;;;;;;5000483;28;20021;-85
2023/11/12 08:39:23;;;;;;;12.27;5.85;;;6.50;99.90;;;;;;5006931;28;20379;-84
2023/11/12 08:41:49;;;;;;;10.43;6.18;;;6.50;99.90;;;;;;5003830;28;20034;-84
2023/11/12 08:44:15;;;;;;;11.60;6.80;;;6.60;99.90;;;;;;5008938;28;20486;-83
2023/11/12 08:46:41;;;;;;;11.25;6.50;;;6.60;99.90;;;;;;5012464;28;20033;-84
2023/11/12 08:49:06;;;;;;;11.90;6.03;;;6.60;99.90;;;;;;5005754;28;20022;-83
2023/11/12 08:51:33;;;;;;;12.80;6.90;;;6.60;99.90;;;;;;5016392;28;20042;-83
2023/11/12 08:53:58;;;;;;;11.50;5.95;;;6.60;99.90;;;;;;5011660;28;20034;-85
2023/11/12 08:56:25;;;;;;;13.00;6.30;;;6.70;99.90;;;;;;5011532;28;20525;-83
2023/11/12 08:58:51;;;;;;;11.10;6.03;;;6.60;99.90;;;;;;5012507;28;20383;-83
2023/11/12 09:01:17;;;;;;;11.13;6.18;;;6.60;99.90;;;;;;5003075;28;20026;-82
2023/11/12 09:03:42;;;;;;;11.95;6.38;;;6.70;99.80;;;;;;5011942;28;20117;-81
2023/11/12 09:06:08;;;;;;;11.32;5.95;;;6.60;99.80;;;;;;5006794;28;20100;-83
2023/11/12 09:08:33;;;;;;;11.20;6.47;;;6.60;99.50;;;;;;5011238;28;20041;-81
2023/11/12 09:10:59;;;;;;;11.02;6.00;;;6.70;99.70;;;;;;5006618;28;20108;-82
2023/11/12 09:13:25;;;;;;;10.98;6.20;;;6.80;99.60;;;;;;5003868;28;20022;-80
2023/11/12 09:15:50;;;;;;;13.25;7.15;;;6.90;99.50;;;;;;5012340;28;20383;-82
2023/11/12 09:18:16;;;;;;;11.77;6.60;;;6.80;99.20;;;;;;5009423;28;20034;-79
2023/11/12 09:20:43;;;;;;;12.35;6.50;;;6.90;99.20;;;;;;5010778;28;20030;-83
2023/11/12 09:23:08;;;;;;;11.73;6.07;;;7.00;99.30;;;;;;5006031;28;20030;-76
2023/11/12 09:25:34;;;;;;;13.35;7.60;;;7.00;99.30;;;;;;5007882;28;20104;-77
2023/11/12 09:28:01;;;;;;;11.48;6.57;;;7.00;98.80;;;;;;5009341;28;20030;-76
2023/11/12 09:30:31;;;;;;;12.02;6.38;;;7.00;98.90;;;;;;5012615;28;20036;-75
2023/11/12 09:32:56;;;;;;;13.15;7.43;;;7.10;99.00;;;;;;5012867;28;20041;-75
2023/11/12 09:35:23;;;;;;;11.88;6.63;;;7.30;99.00;;;;;;5012880;28;20100;-75
2023/11/12 09:37:50;;;;;;;12.75;6.80;;;7.30;98.80;;;;;;5007394;28;20443;-75
2023/11/12 09:40:16;;;;;;;12.60;6.45;;;7.30;98.60;;;;;;5008642;28;20088;-78
2023/11/12 09:42:48;;;;;;;13.07;6.72;;;7.40;98.80;;;;;;5006307;28;20546;-78
2023/11/12 09:45:14;;;;;;;12.32;6.95;;;7.40;98.60;;;;;;5012711;28;20030;-76
2023/11/12 09:47:42;;;;;;;12.50;6.45;;;7.30;98.80;;;;;;5012292;28;20100;-76
2023/11/12 09:50:10;;;;;;;11.13;6.85;;;7.10;98.70;;;;;;5010818;28;20041;-77
2023/11/12 09:52:36;;;;;;;15.57;8.80;;;7.10;99.00;;;;;;5006364;28;20035;-81
2023/11/12 09:55:02;;;;;;;18.45;9.93;;;7.10;99.20;;;;;;5007931;28;20128;-83
2023/11/12 09:57:29;;;;;;;15.05;9.52;;;7.00;99.20;;;;;;5001103;28;20546;-75
2023/11/12 09:59:55;;;;;;;16.58;8.98;;;7.10;99.40;;;;;;5001231;28;20104;-78
2023/11/12 10:02:22;;;;;;;9.95;5.68;;;7.10;99.40;;;;;;5011856;28;20142;-81
2023/11/12 10:04:57;;;;;;;10.80;6.22;;;6.90;99.10;;;;;;5014650;28;20041;-89
2023/11/12 10:07:24;;;;;;;12.55;6.70;;;6.90;99.20;;;;;;5011746;28;20520;-84
2023/11/12 10:09:50;;;;;;;11.70;6.38;;;6.90;99.30;;;;;;5015663;28;20025;-92
2023/11/12 10:12:15;;;;;;;10.45;5.50;;;6.90;99.30;;;;;;5007270;28;20537;-85
2023/11/12 10:14:42;;;;;;;11.23;6.47;;;7.00;99.40;;;;;;5002807;28;20034;-79
2023/11/12 10:17:11;;;;;;;12.18;7.30;;;7.00;99.10;;;;;;5010669;28;20084;-82
2023/11/12 10:19:40;;;;;;;12.35;6.90;;;7.00;99.30;;;;;;5011475;28;20382;-86
2023/11/12 10:22:09;;;;;;;17.02;9.13;;;7.00;99.30;;;;;;5004995;28;20057;-82
2023/11/12 10:24:44;;;;;;;12.48;7.18;;;7.10;99.50;;;;;;5004183;28;20034;-83
2023/11/12 10:27:12;;;;;;;11.43;6.35;;;7.20;99.30;;;;;;5009829;28;20072;-82
2023/11/12 10:29:39;;;;;;;12.90;6.97;;;7.30;99.30;;;;;;5019094;28;20026;-81
2023/11/12 10:32:05;;;;;;;12.70;6.93;;;7.30;99.00;;;;;;5012235;28;20038;-79
2023/11/12 10:34:31;;;;;;;12.93;6.55;;;7.40;99.20;;;;;;5006611;28;20026;-83
2023/11/12 10:37:13;;;;;;;12.35;7.28;;;7.70;99.40;;;;;;5011327;28;20157;-84
2023/11/12 10:39:44;;;;;;;14.85;8.18;;;7.60;98.90;;;;;;5012493;28;20103;-82
2023/11/12 10:42:20;;;;;;;13.98;6.93;;;7.80;98.70;;;;;;5006317;28;20038;-80
2023/11/12 10:44:49;;;;;;;13.85;8.13;;;7.80;98.50;;;;;;5011166;28;20172;-79
2023/11/12 10:47:16;;;;;;;13.95;7.38;;;7.90;98.40;;;;;;5012183;28;20069;-86
2023/11/12 10:49:44;;;;;;;12.60;7.13;;;8.00;98.10;;;;;;5018499;28;20040;-89
2023/11/12 10:52:10;;;;;;;12.45;7.55;;;8.00;98.30;;;;;;5006550;28;20478;-82
2023/11/12 10:54:37;;;;;;;14.48;7.53;;;8.00;97.80;;;;;;5011343;28;20044;-82
2023/11/12 10:57:04;;;;;;;13.65;7.00;;;7.80;97.80;;;;;;5010600;28;20466;-78
2023/11/12 10:59:33;;;;;;;15.73;7.90;;;7.80;98.00;;;;;;5011670;28;20029;-83
2023/11/12 11:01:59;;;;;;;10.48;6.15;;;7.70;98.20;;;;;;5006626;28;20133;-81
2023/11/12 11:04:28;;;;;;;12.88;6.85;;;7.70;98.40;;;;;;5015532;28;20125;-80
2023/11/12 11:06:53;;;;;;;10.75;6.57;;;7.60;98.30;;;;;;5008908;28;20026;-78
2023/11/12 11:09:20;;;;;;;13.02;6.90;;;7.60;98.30;;;;;;5009142;28;20045;-76
2023/11/12 11:11:49;;;;;;;11.40;6.68;;;7.60;98.30;;;;;;5007282;28;20037;-75
2023/11/12 11:14:27;;;;;;;12.82;6.32;;;7.60;98.30;;;;;;5013158;28;20053;-78
2023/11/12 11:16:54;;;;;;;11.88;5.63;;;7.60;97.90;;;;;;5004716;28;20034;-77
2023/11/12 11:19:42;;;;;;;11.88;5.90;;;7.70;98.20;;;;;;5012204;28;20034;-79
2023/11/12 11:22:29;;;;;;;10.07;5.85;;;7.60;97.60;;;;;;5007132;28;20076;-78
2023/11/12 11:24:56;;;;;;;11.23;6.22;;;7.70;97.80;;;;;;5007093;28;20117;-81
2023/11/12 11:27:24;;;;;;;10.02;5.30;;;7.80;97.80;;;;;;5002535;28;20053;-84
2023/11/12 11:30:06;;;;;;;10.65;5.97;;;7.70;97.50;;;;;;5009598;28;20049;-77
2023/11/12 11:32:32;;;;;;;9.80;5.97;;;7.70;97.20;;;;;;5002167;28;20498;-78
2023/11/12 11:34:58;;;;;;;10.75;5.88;;;7.70;96.70;;;;;;5005569;28;20030;-75
2023/11/12 11:38:07;;;;;;;9.02;5.07;;;7.90;97.00;;;;;;5002121;28;20031;-78
2023/11/12 11:40:34;;;;;;;7.78;4.78;;;7.90;96.70;;;;;;5004024;28;21606;-80
2023/11/12 11:43:22;;;;;;;9.57;5.07;;;7.90;96.60;;;;;;5009368;28;20030;-77
2023/11/12 11:46:06;;;;;;;9.88;5.07;;;7.90;96.50;;;;;;5001039;28;20034;-75
2023/11/12 11:48:31;;;;;;;8.18;4.82;;;7.90;96.60;;;;;;5009350;28;20069;-76
2023/11/12 11:50:57;;;;;;;9.82;5.60;;;7.90;96.50;;;;;;5008796;28;20042;-85
2023/11/12 11:53:27;;;;;;;9.27;4.93;;;8.00;96.50;;;;;;5006106;28;20030;-77
2023/11/12 11:56:05;;;;;;;7.43;4.10;;;8.00;96.60;;;;;;5004480;28;20046;-77
2023/11/12 11:58:47;;;;;;;9.15;4.63;;;7.90;96.50;;;;;;5011032;28;20038;-83
2023/11/12 12:01:13;;;;;;;8.55;4.03;;;7.90;96.00;;;;;;5011672;28;20034;-77
2023/11/12 12:03:38;;;;;;;8.10;4.38;;;7.80;95.80;;;;;;5002143;28;20378;-81
2023/11/12 12:06:17;;;;;;;8.18;4.10;;;7.90;96.30;;;;;;5011396;28;20049;-78
2023/11/12 12:08:51;;;;;;;8.07;4.50;;;8.00;96.20;;;;;;5006881;28;20546;-84
2023/11/12 12:11:17;;;;;;;7.82;4.43;;;8.00;96.00;;;;;;5007324;28;20061;-84
2023/11/12 12:13:59;;;;;;;8.55;4.57;;;8.10;96.10;;;;;;5013063;28;20080;-78
2023/11/12 12:16:32;;;;;;;9.35;5.30;;;8.40;96.40;;;;;;5011031;28;20190;-84
2023/11/12 12:18:58;;;;;;;8.05;3.90;;;8.50;95.90;;;;;;5018560;28;20022;-78
2023/11/12 12:21:24;;;;;;;7.82;4.20;;;8.40;95.40;;;;;;5013144;28;20032;-78
2023/11/12 12:23:51;;;;;;;6.45;3.83;;;8.30;94.90;;;;;;5013788;28;20038;-77
2023/11/12 12:26:21;;;;;;;10.15;5.50;;;8.20;94.40;;;;;;5004943;28;20479;-78
2023/11/12 12:28:46;;;;;;;13.07;5.97;;;8.20;94.40;;;;;;5003502;28;20026;-79
2023/11/12 12:31:12;;;;;;;7.85;4.55;;;8.20;94.60;;;;;;5006050;28;20036;-80
2023/11/12 12:33:38;;;;;;;7.57;4.68;;;8.30;94.60;;;;;;5007668;28;20076;-80
2023/11/12 12:36:14;;;;;;;7.40;4.13;;;8.50;94.50;;;;;;5003413;28;20053;-78
2023/11/12 12:39:15;;;;;;;7.35;4.00;;;8.60;94.10;;;;;;5002333;28;20531;-81
2023/11/12 12:41:41;;;;;;;7.35;3.95;;;8.80;93.60;;;;;;4966587;28;20045;-77
2023/11/12 12:44:18;;;;;;;6.90;3.70;;;8.70;92.90;;;;;;4994753;28;20045;-78
2023/11/12 12:46:51;;;;;;;7.70;4.30;;;8.70;93.20;;;;;;5014381;28;20460;-81
2023/11/12 12:49:33;;;;;;;9.20;4.75;;;8.80;93.70;;;;;;5009617;28;20463;-78
2023/11/12 12:52:03;;;;;;;7.60;4.22;;;9.10;93.70;;;;;;5009160;28;20044;-80